< < Back
Terminal Aerodrome Forecast


Current Version              Previous Versions:   1  2  3  4  5  6  7  8  9  

Terminal Aerodrome Forecast

302
FTUS42 KILM 091720
TAFFLO
TAF
KFLO 091720Z 0918/1018 28013G24KT P6SM BKN050 BKN110
     FM100100 28008KT P6SM SCT050 BKN100
     FM100800 27007KT P6SM SKC=

Latest METAR

551
SAUS70 KWBC 101500 RRL
MTRFLO
METAR KFLO 101453Z 28009KT 10SM CLR 00/M09 A3001 RMK AO2 SLP161
T00001089 50011


USA.gov is the U.S. government's official web portal to all federal, state and local government web resources and services.